sensor_id;sensor_type;location;lat;lon;timestamp;P1;durP1;ratioP1;P2;durP2;ratioP2
55455;SDS011;63021;52.836;6.376;2023-07-28T00:01:34;19.75;;;8.07;;
55455;SDS011;63021;52.836;6.376;2023-07-28T00:03:59;14.85;;;8.10;;
55455;SDS011;63021;52.836;6.376;2023-07-28T00:06:24;16.13;;;8.32;;
55455;SDS011;63021;52.836;6.376;2023-07-28T00:08:50;13.18;;;8.05;;
55455;SDS011;63021;52.836;6.376;2023-07-28T00:11:15;19.60;;;8.43;;
55455;SDS011;63021;52.836;6.376;2023-07-28T00:13:41;13.90;;;8.07;;
55455;SDS011;63021;52.836;6.376;2023-07-28T00:16:08;13.15;;;7.93;;
55455;SDS011;63021;52.836;6.376;2023-07-28T00:18:34;14.48;;;7.55;;
55455;SDS011;63021;52.836;6.376;2023-07-28T00:21:00;14.77;;;8.10;;
55455;SDS011;63021;52.836;6.376;2023-07-28T00:23:25;15.70;;;7.65;;
55455;SDS011;63021;52.836;6.376;2023-07-28T00:25:51;16.15;;;8.57;;
55455;SDS011;63021;52.836;6.376;2023-07-28T00:28:16;15.20;;;8.93;;
55455;SDS011;63021;52.836;6.376;2023-07-28T00:30:42;20.65;;;8.70;;
55455;SDS011;63021;52.836;6.376;2023-07-28T00:33:07;17.80;;;8.23;;
55455;SDS011;63021;52.836;6.376;2023-07-28T00:35:33;18.73;;;8.23;;
55455;SDS011;63021;52.836;6.376;2023-07-28T00:37:58;17.02;;;7.45;;
55455;SDS011;63021;52.836;6.376;2023-07-28T00:40:23;10.77;;;7.22;;
55455;SDS011;63021;52.836;6.376;2023-07-28T00:42:49;15.93;;;7.90;;
55455;SDS011;63021;52.836;6.376;2023-07-28T00:45:15;14.48;;;8.65;;
55455;SDS011;63021;52.836;6.376;2023-07-28T00:47:40;14.43;;;8.68;;
55455;SDS011;63021;52.836;6.376;2023-07-28T00:50:07;16.85;;;10.57;;
55455;SDS011;63021;52.836;6.376;2023-07-28T00:52:34;15.88;;;9.25;;
55455;SDS011;63021;52.836;6.376;2023-07-28T00:55:00;21.50;;;10.07;;
55455;SDS011;63021;52.836;6.376;2023-07-28T00:57:26;15.35;;;9.10;;
55455;SDS011;63021;52.836;6.376;2023-07-28T00:59:51;16.27;;;9.52;;
55455;SDS011;63021;52.836;6.376;2023-07-28T01:02:18;20.02;;;11.68;;
55455;SDS011;63021;52.836;6.376;2023-07-28T01:04:44;23.02;;;10.82;;
55455;SDS011;63021;52.836;6.376;2023-07-28T01:07:13;17.20;;;10.60;;
55455;SDS011;63021;52.836;6.376;2023-07-28T01:12:43;24.08;;;11.90;;
55455;SDS011;63021;52.836;6.376;2023-07-28T01:15:08;24.27;;;12.35;;
55455;SDS011;63021;52.836;6.376;2023-07-28T01:17:34;21.75;;;10.88;;
55455;SDS011;63021;52.836;6.376;2023-07-28T01:19:59;17.98;;;11.13;;
55455;SDS011;63021;52.836;6.376;2023-07-28T01:27:34;24.85;;;11.77;;
55455;SDS011;63021;52.836;6.376;2023-07-28T01:30:02;18.63;;;11.27;;
55455;SDS011;63021;52.836;6.376;2023-07-28T01:32:28;23.33;;;12.55;;
55455;SDS011;63021;52.836;6.376;2023-07-28T01:34:53;29.60;;;13.00;;
55455;SDS011;63021;52.836;6.376;2023-07-28T01:37:19;21.98;;;11.23;;
55455;SDS011;63021;52.836;6.376;2023-07-28T01:39:44;19.85;;;11.27;;
55455;SDS011;63021;52.836;6.376;2023-07-28T01:42:09;24.17;;;13.48;;
55455;SDS011;63021;52.836;6.376;2023-07-28T01:44:35;18.95;;;10.73;;
55455;SDS011;63021;52.836;6.376;2023-07-28T01:47:00;23.48;;;12.68;;
55455;SDS011;63021;52.836;6.376;2023-07-28T01:49:25;20.17;;;11.00;;
55455;SDS011;63021;52.836;6.376;2023-07-28T01:51:51;22.20;;;10.38;;
55455;SDS011;63021;52.836;6.376;2023-07-28T01:54:16;16.33;;;10.65;;
55455;SDS011;63021;52.836;6.376;2023-07-28T01:56:41;21.10;;;10.40;;
55455;SDS011;63021;52.836;6.376;2023-07-28T01:59:07;25.70;;;12.13;;
55455;SDS011;63021;52.836;6.376;2023-07-28T02:01:32;17.63;;;9.75;;
55455;SDS011;63021;52.836;6.376;2023-07-28T02:03:57;22.85;;;12.05;;
55455;SDS011;63021;52.836;6.376;2023-07-28T02:06:23;18.38;;;10.63;;
55455;SDS011;63021;52.836;6.376;2023-07-28T02:08:48;14.93;;;10.45;;
55455;SDS011;63021;52.836;6.376;2023-07-28T02:11:13;22.60;;;10.65;;
55455;SDS011;63021;52.836;6.376;2023-07-28T02:13:39;21.95;;;11.18;;
55455;SDS011;63021;52.836;6.376;2023-07-28T02:16:04;14.68;;;10.40;;
55455;SDS011;63021;52.836;6.376;2023-07-28T02:18:30;15.63;;;10.30;;
55455;SDS011;63021;52.836;6.376;2023-07-28T02:20:55;23.02;;;10.18;;
55455;SDS011;63021;52.836;6.376;2023-07-28T02:23:20;20.00;;;11.35;;
55455;SDS011;63021;52.836;6.376;2023-07-28T02:25:46;17.00;;;10.85;;
55455;SDS011;63021;52.836;6.376;2023-07-28T02:28:11;23.02;;;11.00;;
55455;SDS011;63021;52.836;6.376;2023-07-28T02:30:37;15.38;;;10.90;;
55455;SDS011;63021;52.836;6.376;2023-07-28T02:33:02;21.98;;;11.10;;
55455;SDS011;63021;52.836;6.376;2023-07-28T02:35:28;18.90;;;10.00;;
55455;SDS011;63021;52.836;6.376;2023-07-28T02:37:53;25.25;;;11.00;;
55455;SDS011;63021;52.836;6.376;2023-07-28T02:40:18;19.60;;;10.57;;
55455;SDS011;63021;52.836;6.376;2023-07-28T02:42:44;19.65;;;11.07;;
55455;SDS011;63021;52.836;6.376;2023-07-28T02:45:09;19.35;;;11.85;;
55455;SDS011;63021;52.836;6.376;2023-07-28T02:47:35;24.92;;;12.48;;
55455;SDS011;63021;52.836;6.376;2023-07-28T02:50:01;24.63;;;11.48;;
55455;SDS011;63021;52.836;6.376;2023-07-28T02:52:26;20.83;;;10.00;;
55455;SDS011;63021;52.836;6.376;2023-07-28T02:54:51;25.48;;;11.45;;
55455;SDS011;63021;52.836;6.376;2023-07-28T02:57:17;27.80;;;11.32;;
55455;SDS011;63021;52.836;6.376;2023-07-28T02:59:42;20.85;;;11.63;;
55455;SDS011;63021;52.836;6.376;2023-07-28T03:02:08;23.70;;;11.13;;
55455;SDS011;63021;52.836;6.376;2023-07-28T03:04:33;21.70;;;10.02;;
55455;SDS011;63021;52.836;6.376;2023-07-28T03:06:58;25.30;;;10.80;;
55455;SDS011;63021;52.836;6.376;2023-07-28T03:09:24;21.95;;;10.50;;
55455;SDS011;63021;52.836;6.376;2023-07-28T03:11:49;25.83;;;12.35;;
55455;SDS011;63021;52.836;6.376;2023-07-28T03:14:15;21.15;;;10.77;;
55455;SDS011;63021;52.836;6.376;2023-07-28T03:16:41;16.63;;;10.13;;
55455;SDS011;63021;52.836;6.376;2023-07-28T03:19:07;23.45;;;10.70;;
55455;SDS011;63021;52.836;6.376;2023-07-28T03:21:32;20.42;;;10.45;;
55455;SDS011;63021;52.836;6.376;2023-07-28T03:23:58;18.80;;;10.25;;
55455;SDS011;63021;52.836;6.376;2023-07-28T03:26:23;16.77;;;10.10;;
55455;SDS011;63021;52.836;6.376;2023-07-28T03:28:49;23.13;;;10.07;;
55455;SDS011;63021;52.836;6.376;2023-07-28T03:31:14;20.27;;;9.48;;
55455;SDS011;63021;52.836;6.376;2023-07-28T03:33:39;17.88;;;10.05;;
55455;SDS011;63021;52.836;6.376;2023-07-28T03:36:05;21.08;;;10.30;;
55455;SDS011;63021;52.836;6.376;2023-07-28T03:38:30;20.33;;;9.68;;
55455;SDS011;63021;52.836;6.376;2023-07-28T03:40:56;23.75;;;10.30;;
55455;SDS011;63021;52.836;6.376;2023-07-28T03:43:21;20.40;;;9.70;;
55455;SDS011;63021;52.836;6.376;2023-07-28T03:45:47;19.63;;;9.82;;
55455;SDS011;63021;52.836;6.376;2023-07-28T03:48:12;22.13;;;9.95;;
55455;SDS011;63021;52.836;6.376;2023-07-28T03:50:38;16.98;;;10.10;;
55455;SDS011;63021;52.836;6.376;2023-07-28T03:53:03;29.50;;;12.00;;
55455;SDS011;63021;52.836;6.376;2023-07-28T03:55:28;21.45;;;10.35;;
55455;SDS011;63021;52.836;6.376;2023-07-28T03:57:54;24.00;;;11.43;;
55455;SDS011;63021;52.836;6.376;2023-07-28T04:00:19;18.70;;;10.13;;
55455;SDS011;63021;52.836;6.376;2023-07-28T04:02:45;14.23;;;9.65;;
55455;SDS011;63021;52.836;6.376;2023-07-28T04:05:11;18.17;;;10.20;;
55455;SDS011;63021;52.836;6.376;2023-07-28T04:07:37;17.52;;;10.30;;
55455;SDS011;63021;52.836;6.376;2023-07-28T04:10:02;19.67;;;10.60;;
55455;SDS011;63021;52.836;6.376;2023-07-28T04:12:29;21.42;;;11.35;;
55455;SDS011;63021;52.836;6.376;2023-07-28T04:14:54;20.00;;;12.13;;
55455;SDS011;63021;52.836;6.376;2023-07-28T04:17:20;18.42;;;9.85;;
55455;SDS011;63021;52.836;6.376;2023-07-28T04:19:45;18.60;;;12.68;;
55455;SDS011;63021;52.836;6.376;2023-07-28T04:22:10;17.38;;;11.13;;
55455;SDS011;63021;52.836;6.376;2023-07-28T04:24:38;22.17;;;11.25;;
55455;SDS011;63021;52.836;6.376;2023-07-28T04:27:03;20.38;;;10.98;;
55455;SDS011;63021;52.836;6.376;2023-07-28T04:29:29;15.75;;;10.98;;
55455;SDS011;63021;52.836;6.376;2023-07-28T04:31:54;22.17;;;11.68;;
55455;SDS011;63021;52.836;6.376;2023-07-28T04:34:20;20.80;;;11.60;;
55455;SDS011;63021;52.836;6.376;2023-07-28T04:36:45;17.90;;;11.35;;
55455;SDS011;63021;52.836;6.376;2023-07-28T04:39:11;18.55;;;11.43;;
55455;SDS011;63021;52.836;6.376;2023-07-28T04:41:36;20.33;;;10.90;;
55455;SDS011;63021;52.836;6.376;2023-07-28T04:44:02;25.83;;;12.35;;
55455;SDS011;63021;52.836;6.376;2023-07-28T04:46:27;22.77;;;11.77;;
55455;SDS011;63021;52.836;6.376;2023-07-28T04:48:53;17.60;;;11.55;;
55455;SDS011;63021;52.836;6.376;2023-07-28T04:51:20;18.52;;;11.88;;
55455;SDS011;63021;52.836;6.376;2023-07-28T04:53:45;22.75;;;11.90;;
55455;SDS011;63021;52.836;6.376;2023-07-28T04:56:10;20.60;;;11.75;;
55455;SDS011;63021;52.836;6.376;2023-07-28T04:58:36;23.33;;;13.43;;
55455;SDS011;63021;52.836;6.376;2023-07-28T05:01:01;20.42;;;12.68;;
55455;SDS011;63021;52.836;6.376;2023-07-28T05:03:27;17.73;;;10.98;;
55455;SDS011;63021;52.836;6.376;2023-07-28T05:05:54;20.08;;;12.40;;
55455;SDS011;63021;52.836;6.376;2023-07-28T05:08:19;22.33;;;11.85;;
55455;SDS011;63021;52.836;6.376;2023-07-28T05:10:44;22.70;;;11.32;;
55455;SDS011;63021;52.836;6.376;2023-07-28T05:13:10;23.60;;;12.23;;
55455;SDS011;63021;52.836;6.376;2023-07-28T05:15:35;22.08;;;11.95;;
55455;SDS011;63021;52.836;6.376;2023-07-28T05:18:01;19.73;;;11.77;;
55455;SDS011;63021;52.836;6.376;2023-07-28T05:20:26;24.83;;;12.25;;
55455;SDS011;63021;52.836;6.376;2023-07-28T05:22:51;20.13;;;12.95;;
55455;SDS011;63021;52.836;6.376;2023-07-28T05:25:17;28.13;;;13.40;;
55455;SDS011;63021;52.836;6.376;2023-07-28T05:27:42;16.58;;;11.18;;
55455;SDS011;63021;52.836;6.376;2023-07-28T05:30:08;25.75;;;12.23;;
55455;SDS011;63021;52.836;6.376;2023-07-28T05:32:33;22.60;;;12.57;;
55455;SDS011;63021;52.836;6.376;2023-07-28T05:34:59;25.40;;;12.05;;
55455;SDS011;63021;52.836;6.376;2023-07-28T05:37:24;18.48;;;10.82;;
55455;SDS011;63021;52.836;6.376;2023-07-28T05:39:49;18.90;;;11.18;;
55455;SDS011;63021;52.836;6.376;2023-07-28T05:42:15;21.58;;;10.82;;
55455;SDS011;63021;52.836;6.376;2023-07-28T05:44:40;21.15;;;9.90;;
55455;SDS011;63021;52.836;6.376;2023-07-28T05:47:06;20.95;;;10.43;;
55455;SDS011;63021;52.836;6.376;2023-07-28T05:49:32;28.40;;;11.48;;
55455;SDS011;63021;52.836;6.376;2023-07-28T05:51:57;19.45;;;10.77;;
55455;SDS011;63021;52.836;6.376;2023-07-28T05:54:23;19.13;;;11.45;;
55455;SDS011;63021;52.836;6.376;2023-07-28T05:56:48;19.35;;;10.10;;
55455;SDS011;63021;52.836;6.376;2023-07-28T05:59:13;14.55;;;10.30;;
55455;SDS011;63021;52.836;6.376;2023-07-28T06:01:39;24.10;;;11.15;;
55455;SDS011;63021;52.836;6.376;2023-07-28T06:04:04;18.10;;;10.65;;
55455;SDS011;63021;52.836;6.376;2023-07-28T06:06:30;19.13;;;11.55;;
55455;SDS011;63021;52.836;6.376;2023-07-28T06:08:55;14.90;;;9.88;;
55455;SDS011;63021;52.836;6.376;2023-07-28T06:11:21;18.75;;;10.02;;
55455;SDS011;63021;52.836;6.376;2023-07-28T06:13:46;17.00;;;10.27;;
55455;SDS011;63021;52.836;6.376;2023-07-28T06:16:13;15.00;;;9.18;;
55455;SDS011;63021;52.836;6.376;2023-07-28T06:18:39;22.15;;;10.25;;
55455;SDS011;63021;52.836;6.376;2023-07-28T06:21:04;15.48;;;9.80;;
55455;SDS011;63021;52.836;6.376;2023-07-28T06:23:29;14.50;;;8.88;;
55455;SDS011;63021;52.836;6.376;2023-07-28T06:25:55;14.90;;;10.07;;
55455;SDS011;63021;52.836;6.376;2023-07-28T06:28:20;18.55;;;10.27;;
55455;SDS011;63021;52.836;6.376;2023-07-28T06:30:46;18.98;;;10.82;;
55455;SDS011;63021;52.836;6.376;2023-07-28T06:33:11;13.90;;;10.27;;
55455;SDS011;63021;52.836;6.376;2023-07-28T06:35:37;15.10;;;10.27;;
55455;SDS011;63021;52.836;6.376;2023-07-28T06:38:02;16.77;;;10.50;;
55455;SDS011;63021;52.836;6.376;2023-07-28T06:40:28;18.20;;;10.00;;
55455;SDS011;63021;52.836;6.376;2023-07-28T06:42:54;14.82;;;10.00;;
55455;SDS011;63021;52.836;6.376;2023-07-28T06:45:20;15.82;;;10.80;;
55455;SDS011;63021;52.836;6.376;2023-07-28T06:47:48;14.43;;;9.48;;
55455;SDS011;63021;52.836;6.376;2023-07-28T06:50:15;13.52;;;9.63;;
55455;SDS011;63021;52.836;6.376;2023-07-28T06:52:40;17.00;;;9.48;;
55455;SDS011;63021;52.836;6.376;2023-07-28T06:55:06;15.10;;;9.77;;
55455;SDS011;63021;52.836;6.376;2023-07-28T06:57:31;23.33;;;11.10;;
55455;SDS011;63021;52.836;6.376;2023-07-28T06:59:57;15.45;;;10.13;;
55455;SDS011;63021;52.836;6.376;2023-07-28T07:02:22;17.80;;;9.77;;
55455;SDS011;63021;52.836;6.376;2023-07-28T07:04:48;14.07;;;10.20;;
55455;SDS011;63021;52.836;6.376;2023-07-28T07:07:13;13.30;;;9.60;;
55455;SDS011;63021;52.836;6.376;2023-07-28T07:09:39;13.80;;;9.38;;
55455;SDS011;63021;52.836;6.376;2023-07-28T07:12:06;13.27;;;8.13;;
55455;SDS011;63021;52.836;6.376;2023-07-28T07:14:33;11.45;;;8.20;;
55455;SDS011;63021;52.836;6.376;2023-07-28T07:16:58;12.50;;;9.57;;
55455;SDS011;63021;52.836;6.376;2023-07-28T07:19:24;16.27;;;8.75;;
55455;SDS011;63021;52.836;6.376;2023-07-28T07:21:49;14.32;;;10.20;;
55455;SDS011;63021;52.836;6.376;2023-07-28T07:24:16;15.52;;;9.70;;
55455;SDS011;63021;52.836;6.376;2023-07-28T07:26:41;13.57;;;9.63;;
55455;SDS011;63021;52.836;6.376;2023-07-28T07:29:07;16.40;;;9.85;;
55455;SDS011;63021;52.836;6.376;2023-07-28T07:31:33;15.35;;;10.20;;
55455;SDS011;63021;52.836;6.376;2023-07-28T07:33:59;15.10;;;9.65;;
55455;SDS011;63021;52.836;6.376;2023-07-28T07:36:25;13.32;;;9.35;;
55455;SDS011;63021;52.836;6.376;2023-07-28T07:38:50;20.25;;;10.93;;
55455;SDS011;63021;52.836;6.376;2023-07-28T07:41:16;15.48;;;10.45;;
55455;SDS011;63021;52.836;6.376;2023-07-28T07:43:45;13.68;;;9.40;;
55455;SDS011;63021;52.836;6.376;2023-07-28T07:46:11;19.10;;;9.90;;
55455;SDS011;63021;52.836;6.376;2023-07-28T07:48:37;12.77;;;9.02;;
55455;SDS011;63021;52.836;6.376;2023-07-28T07:51:03;15.00;;;9.60;;
55455;SDS011;63021;52.836;6.376;2023-07-28T07:53:28;15.85;;;9.07;;
55455;SDS011;63021;52.836;6.376;2023-07-28T07:55:54;12.23;;;9.02;;
55455;SDS011;63021;52.836;6.376;2023-07-28T07:58:19;12.05;;;7.82;;
55455;SDS011;63021;52.836;6.376;2023-07-28T08:00:45;15.55;;;9.02;;
55455;SDS011;63021;52.836;6.376;2023-07-28T08:03:11;11.93;;;8.15;;
55455;SDS011;63021;52.836;6.376;2023-07-28T08:05:37;14.73;;;7.78;;
55455;SDS011;63021;52.836;6.376;2023-07-28T08:08:02;14.15;;;8.00;;
55455;SDS011;63021;52.836;6.376;2023-07-28T08:10:28;10.63;;;6.90;;
55455;SDS011;63021;52.836;6.376;2023-07-28T08:12:54;11.15;;;6.80;;
55455;SDS011;63021;52.836;6.376;2023-07-28T08:15:20;12.52;;;7.45;;
55455;SDS011;63021;52.836;6.376;2023-07-28T08:17:46;9.88;;;6.65;;
55455;SDS011;63021;52.836;6.376;2023-07-28T08:20:11;7.80;;;5.85;;
55455;SDS011;63021;52.836;6.376;2023-07-28T08:22:37;8.82;;;6.00;;
55455;SDS011;63021;52.836;6.376;2023-07-28T08:25:03;10.20;;;6.15;;
55455;SDS011;63021;52.836;6.376;2023-07-28T08:27:29;9.35;;;5.93;;
55455;SDS011;63021;52.836;6.376;2023-07-28T08:29:55;14.30;;;5.82;;
55455;SDS011;63021;52.836;6.376;2023-07-28T08:32:20;9.32;;;5.40;;
55455;SDS011;63021;52.836;6.376;2023-07-28T08:34:47;6.93;;;4.82;;
55455;SDS011;63021;52.836;6.376;2023-07-28T08:37:12;8.20;;;5.00;;
55455;SDS011;63021;52.836;6.376;2023-07-28T08:39:38;11.35;;;4.93;;
55455;SDS011;63021;52.836;6.376;2023-07-28T08:42:04;6.40;;;4.20;;
55455;SDS011;63021;52.836;6.376;2023-07-28T08:44:33;5.95;;;4.05;;
55455;SDS011;63021;52.836;6.376;2023-07-28T08:47:03;5.70;;;4.45;;
55455;SDS011;63021;52.836;6.376;2023-07-28T08:49:32;4.53;;;3.75;;
55455;SDS011;63021;52.836;6.376;2023-07-28T08:52:00;7.80;;;4.78;;
55455;SDS011;63021;52.836;6.376;2023-07-28T08:54:26;8.35;;;5.13;;
55455;SDS011;63021;52.836;6.376;2023-07-28T08:56:52;9.52;;;5.13;;
55455;SDS011;63021;52.836;6.376;2023-07-28T08:59:24;7.60;;;4.72;;
55455;SDS011;63021;52.836;6.376;2023-07-28T09:01:52;7.82;;;5.18;;
55455;SDS011;63021;52.836;6.376;2023-07-28T09:04:21;9.18;;;5.20;;
55455;SDS011;63021;52.836;6.376;2023-07-28T09:06:48;5.45;;;4.60;;
55455;SDS011;63021;52.836;6.376;2023-07-28T09:09:14;8.00;;;5.13;;
55455;SDS011;63021;52.836;6.376;2023-07-28T09:11:50;14.25;;;5.32;;
55455;SDS011;63021;52.836;6.376;2023-07-28T09:14:18;5.47;;;4.05;;
55455;SDS011;63021;52.836;6.376;2023-07-28T09:16:44;5.95;;;3.60;;
55455;SDS011;63021;52.836;6.376;2023-07-28T09:19:10;7.03;;;4.38;;
55455;SDS011;63021;52.836;6.376;2023-07-28T09:21:41;6.35;;;4.93;;
55455;SDS011;63021;52.836;6.376;2023-07-28T09:24:09;9.18;;;4.88;;
55455;SDS011;63021;52.836;6.376;2023-07-28T09:26:37;8.15;;;4.63;;
55455;SDS011;63021;52.836;6.376;2023-07-28T09:31:45;5.72;;;4.93;;
55455;SDS011;63021;52.836;6.376;2023-07-28T09:34:13;10.73;;;5.63;;
55455;SDS011;63021;52.836;6.376;2023-07-28T09:36:55;6.07;;;5.20;;
55455;SDS011;63021;52.836;6.376;2023-07-28T09:39:22;7.38;;;4.93;;
55455;SDS011;63021;52.836;6.376;2023-07-28T09:41:48;8.32;;;4.90;;
55455;SDS011;63021;52.836;6.376;2023-07-28T09:44:14;6.90;;;4.80;;
55455;SDS011;63021;52.836;6.376;2023-07-28T09:49:19;6.65;;;4.22;;
55455;SDS011;63021;52.836;6.376;2023-07-28T09:51:48;11.50;;;5.00;;
55455;SDS011;63021;52.836;6.376;2023-07-28T09:54:27;7.22;;;4.57;;
55455;SDS011;63021;52.836;6.376;2023-07-28T09:56:58;5.40;;;4.25;;
55455;SDS011;63021;52.836;6.376;2023-07-28T09:59:35;6.80;;;4.32;;
55455;SDS011;63021;52.836;6.376;2023-07-28T10:02:03;7.15;;;3.97;;
55455;SDS011;63021;52.836;6.376;2023-07-28T10:04:30;8.15;;;3.83;;
55455;SDS011;63021;52.836;6.376;2023-07-28T10:06:56;7.00;;;3.80;;
55455;SDS011;63021;52.836;6.376;2023-07-28T10:09:25;5.38;;;4.25;;
55455;SDS011;63021;52.836;6.376;2023-07-28T10:11:52;7.78;;;4.70;;
55455;SDS011;63021;52.836;6.376;2023-07-28T10:16:54;5.35;;;4.45;;
55455;SDS011;63021;52.836;6.376;2023-07-28T10:19:20;10.00;;;5.07;;
55455;SDS011;63021;52.836;6.376;2023-07-28T10:21:46;9.88;;;5.07;;
55455;SDS011;63021;52.836;6.376;2023-07-28T10:24:11;8.95;;;5.03;;
55455;SDS011;63021;52.836;6.376;2023-07-28T10:26:38;6.53;;;4.50;;
55455;SDS011;63021;52.836;6.376;2023-07-28T10:29:13;7.97;;;5.30;;
55455;SDS011;63021;52.836;6.376;2023-07-28T10:31:50;4.40;;;3.80;;
55455;SDS011;63021;52.836;6.376;2023-07-28T10:34:22;8.80;;;4.80;;
55455;SDS011;63021;52.836;6.376;2023-07-28T10:36:55;7.75;;;5.35;;
55455;SDS011;63021;52.836;6.376;2023-07-28T10:39:24;8.23;;;5.35;;
55455;SDS011;63021;52.836;6.376;2023-07-28T10:44:29;8.13;;;5.10;;
55455;SDS011;63021;52.836;6.376;2023-07-28T10:46:55;7.85;;;5.78;;
55455;SDS011;63021;52.836;6.376;2023-07-28T10:49:21;14.13;;;7.88;;
55455;SDS011;63021;52.836;6.376;2023-07-28T10:51:49;10.73;;;6.60;;
55455;SDS011;63021;52.836;6.376;2023-07-28T10:54:14;6.57;;;5.95;;
55455;SDS011;63021;52.836;6.376;2023-07-28T10:56:42;9.63;;;6.53;;
55455;SDS011;63021;52.836;6.376;2023-07-28T10:59:08;11.55;;;6.35;;
55455;SDS011;63021;52.836;6.376;2023-07-28T11:01:34;6.57;;;5.85;;
55455;SDS011;63021;52.836;6.376;2023-07-28T11:04:14;8.52;;;6.05;;
55455;SDS011;63021;52.836;6.376;2023-07-28T11:06:42;8.07;;;6.18;;
55455;SDS011;63021;52.836;6.376;2023-07-28T11:09:13;10.60;;;5.68;;
55455;SDS011;63021;52.836;6.376;2023-07-28T11:11:41;10.15;;;6.07;;
55455;SDS011;63021;52.836;6.376;2023-07-28T11:14:07;9.07;;;6.05;;
55455;SDS011;63021;52.836;6.376;2023-07-28T11:16:35;8.95;;;6.82;;
55455;SDS011;63021;52.836;6.376;2023-07-28T11:19:01;9.77;;;6.97;;
55455;SDS011;63021;52.836;6.376;2023-07-28T11:21:28;12.38;;;8.18;;
55455;SDS011;63021;52.836;6.376;2023-07-28T11:23:53;12.57;;;8.23;;
55455;SDS011;63021;52.836;6.376;2023-07-28T11:26:19;14.48;;;8.40;;
55455;SDS011;63021;52.836;6.376;2023-07-28T11:28:47;14.00;;;8.75;;
55455;SDS011;63021;52.836;6.376;2023-07-28T11:31:13;11.23;;;8.57;;
55455;SDS011;63021;52.836;6.376;2023-07-28T11:33:39;9.88;;;8.52;;
55455;SDS011;63021;52.836;6.376;2023-07-28T11:36:04;13.98;;;8.18;;
55455;SDS011;63021;52.836;6.376;2023-07-28T11:38:31;13.32;;;7.97;;
55455;SDS011;63021;52.836;6.376;2023-07-28T11:40:58;9.98;;;7.75;;
55455;SDS011;63021;52.836;6.376;2023-07-28T11:43:23;11.40;;;8.13;;
55455;SDS011;63021;52.836;6.376;2023-07-28T11:45:49;11.25;;;8.20;;
55455;SDS011;63021;52.836;6.376;2023-07-28T11:48:15;15.23;;;9.13;;
55455;SDS011;63021;52.836;6.376;2023-07-28T11:50:41;12.43;;;7.93;;
55455;SDS011;63021;52.836;6.376;2023-07-28T11:53:08;7.43;;;6.65;;
55455;SDS011;63021;52.836;6.376;2023-07-28T11:55:35;9.75;;;6.13;;
55455;SDS011;63021;52.836;6.376;2023-07-28T11:58:01;8.50;;;6.97;;
55455;SDS011;63021;52.836;6.376;2023-07-28T12:00:32;9.57;;;6.03;;
55455;SDS011;63021;52.836;6.376;2023-07-28T12:03:06;13.27;;;6.75;;
55455;SDS011;63021;52.836;6.376;2023-07-28T12:05:39;7.38;;;5.97;;
55455;SDS011;63021;52.836;6.376;2023-07-28T12:08:05;8.88;;;6.18;;
55455;SDS011;63021;52.836;6.376;2023-07-28T12:10:34;10.10;;;6.40;;
55455;SDS011;63021;52.836;6.376;2023-07-28T12:13:04;7.97;;;6.18;;
55455;SDS011;63021;52.836;6.376;2023-07-28T12:15:30;7.07;;;6.35;;
55455;SDS011;63021;52.836;6.376;2023-07-28T12:20:34;8.57;;;6.10;;
55455;SDS011;63021;52.836;6.376;2023-07-28T12:23:01;8.43;;;6.50;;
55455;SDS011;63021;52.836;6.376;2023-07-28T12:25:27;7.10;;;6.40;;
55455;SDS011;63021;52.836;6.376;2023-07-28T12:27:54;8.25;;;6.80;;
55455;SDS011;63021;52.836;6.376;2023-07-28T12:30:20;7.60;;;6.32;;
55455;SDS011;63021;52.836;6.376;2023-07-28T12:32:46;9.63;;;7.63;;
55455;SDS011;63021;52.836;6.376;2023-07-28T12:35:12;9.15;;;7.65;;
55455;SDS011;63021;52.836;6.376;2023-07-28T12:37:38;8.10;;;7.40;;
55455;SDS011;63021;52.836;6.376;2023-07-28T12:40:04;9.35;;;7.40;;
55455;SDS011;63021;52.836;6.376;2023-07-28T12:42:31;9.93;;;7.28;;
55455;SDS011;63021;52.836;6.376;2023-07-28T12:44:57;7.55;;;6.78;;
55455;SDS011;63021;52.836;6.376;2023-07-28T12:47:22;8.75;;;6.68;;
55455;SDS011;63021;52.836;6.376;2023-07-28T12:49:48;10.13;;;7.30;;
55455;SDS011;63021;52.836;6.376;2023-07-28T12:52:13;8.07;;;6.32;;
55455;SDS011;63021;52.836;6.376;2023-07-28T12:54:38;7.40;;;6.40;;
55455;SDS011;63021;52.836;6.376;2023-07-28T12:57:04;9.75;;;7.28;;
55455;SDS011;63021;52.836;6.376;2023-07-28T12:59:32;7.32;;;5.95;;
55455;SDS011;63021;52.836;6.376;2023-07-28T13:01:58;8.00;;;5.05;;
55455;SDS011;63021;52.836;6.376;2023-07-28T13:04:23;6.32;;;5.72;;
55455;SDS011;63021;52.836;6.376;2023-07-28T13:06:49;8.40;;;6.38;;
55455;SDS011;63021;52.836;6.376;2023-07-28T13:09:14;7.88;;;6.15;;
55455;SDS011;63021;52.836;6.376;2023-07-28T13:11:40;6.80;;;5.13;;
55455;SDS011;63021;52.836;6.376;2023-07-28T13:14:05;7.63;;;4.70;;
55455;SDS011;63021;52.836;6.376;2023-07-28T13:16:30;7.57;;;4.72;;
55455;SDS011;63021;52.836;6.376;2023-07-28T13:18:56;8.05;;;5.00;;
55455;SDS011;63021;52.836;6.376;2023-07-28T13:21:22;5.97;;;5.35;;
55455;SDS011;63021;52.836;6.376;2023-07-28T13:23:48;7.45;;;5.22;;
55455;SDS011;63021;52.836;6.376;2023-07-28T13:26:13;6.47;;;4.72;;
55455;SDS011;63021;52.836;6.376;2023-07-28T13:28:39;5.80;;;5.10;;
55455;SDS011;63021;52.836;6.376;2023-07-28T13:31:08;6.28;;;5.35;;
55455;SDS011;63021;52.836;6.376;2023-07-28T13:33:33;6.07;;;5.07;;
55455;SDS011;63021;52.836;6.376;2023-07-28T13:35:59;5.43;;;4.80;;
55455;SDS011;63021;52.836;6.376;2023-07-28T13:38:24;4.75;;;4.38;;
55455;SDS011;63021;52.836;6.376;2023-07-28T13:40:50;5.60;;;4.50;;
55455;SDS011;63021;52.836;6.376;2023-07-28T13:43:15;7.65;;;4.93;;
55455;SDS011;63021;52.836;6.376;2023-07-28T13:45:40;6.88;;;4.50;;
55455;SDS011;63021;52.836;6.376;2023-07-28T13:48:06;6.72;;;5.40;;
55455;SDS011;63021;52.836;6.376;2023-07-28T13:50:31;5.60;;;5.10;;
55455;SDS011;63021;52.836;6.376;2023-07-28T13:52:57;8.50;;;5.55;;
55455;SDS011;63021;52.836;6.376;2023-07-28T13:55:22;5.95;;;5.35;;
55455;SDS011;63021;52.836;6.376;2023-07-28T13:57:48;5.95;;;4.80;;
55455;SDS011;63021;52.836;6.376;2023-07-28T14:00:13;8.70;;;5.70;;
55455;SDS011;63021;52.836;6.376;2023-07-28T14:02:39;5.95;;;5.35;;
55455;SDS011;63021;52.836;6.376;2023-07-28T14:05:05;6.85;;;5.57;;
55455;SDS011;63021;52.836;6.376;2023-07-28T14:07:32;7.45;;;4.75;;
55455;SDS011;63021;52.836;6.376;2023-07-28T14:09:59;5.43;;;5.00;;
55455;SDS011;63021;52.836;6.376;2023-07-28T14:12:24;6.70;;;5.97;;
55455;SDS011;63021;52.836;6.376;2023-07-28T14:14:50;6.07;;;5.50;;
55455;SDS011;63021;52.836;6.376;2023-07-28T14:17:15;9.88;;;5.43;;
55455;SDS011;63021;52.836;6.376;2023-07-28T14:19:41;5.38;;;4.30;;
55455;SDS011;63021;52.836;6.376;2023-07-28T14:22:07;6.97;;;4.32;;
55455;SDS011;63021;52.836;6.376;2023-07-28T14:24:33;7.90;;;5.93;;
55455;SDS011;63021;52.836;6.376;2023-07-28T14:26:58;5.60;;;5.10;;
55455;SDS011;63021;52.836;6.376;2023-07-28T14:29:24;6.53;;;5.57;;
55455;SDS011;63021;52.836;6.376;2023-07-28T14:31:49;6.18;;;5.50;;
55455;SDS011;63021;52.836;6.376;2023-07-28T14:34:15;7.05;;;4.85;;
55455;SDS011;63021;52.836;6.376;2023-07-28T14:36:40;5.90;;;4.65;;
55455;SDS011;63021;52.836;6.376;2023-07-28T14:39:05;5.90;;;4.90;;
55455;SDS011;63021;52.836;6.376;2023-07-28T14:41:32;5.72;;;5.07;;
55455;SDS011;63021;52.836;6.376;2023-07-28T14:43:57;5.88;;;5.32;;
55455;SDS011;63021;52.836;6.376;2023-07-28T14:46:23;7.85;;;5.40;;
55455;SDS011;63021;52.836;6.376;2023-07-28T14:48:50;8.52;;;4.97;;